createdAt,value
2018-06-03T00:05:41.562Z,98.63
2018-06-03T00:08:10.415Z,102.63
2018-06-03T00:10:39.215Z,90.10
2018-06-03T00:13:08.309Z,88.57
2018-06-03T00:15:37.799Z,75.47
2018-06-03T00:18:06.943Z,92.40
2018-06-03T00:20:47.018Z,95.33
2018-06-03T00:23:16.479Z,84.73
2018-06-03T00:25:45.330Z,91.43
2018-06-03T00:28:14.141Z,86.83
2018-06-03T00:30:42.964Z,91.27
2018-06-03T00:33:12.461Z,73.70
2018-06-03T00:35:52.427Z,79.00
2018-06-03T00:38:21.539Z,74.97
2018-06-03T00:40:50.314Z,84.37
2018-06-03T00:43:19.484Z,80.03
2018-06-03T00:45:48.885Z,74.83
2018-06-03T00:48:18.391Z,76.73
2018-06-03T00:50:47.925Z,56.07
2018-06-03T00:53:17.075Z,66.43
2018-06-03T00:55:45.911Z,51.47
2018-06-03T00:58:14.775Z,52.50
2018-06-03T01:00:43.888Z,41.20
2018-06-03T01:03:12.960Z,48.63
2018-06-03T01:05:41.753Z,45.97
2018-06-03T01:08:10.572Z,45.13
2018-06-03T01:10:39.862Z,56.60
2018-06-03T01:13:08.964Z,62.43
2018-06-03T01:15:38.044Z,56.53
2018-06-03T01:18:06.891Z,57.57
2018-06-03T01:20:35.725Z,71.10
2018-06-03T01:23:04.838Z,71.20
2018-06-03T01:25:33.652Z,81.23
2018-06-03T01:28:02.864Z,78.57
2018-06-03T01:30:31.676Z,79.73
2018-06-03T01:33:01.090Z,90.93
2018-06-03T01:35:30.298Z,89.10
2018-06-03T01:37:59.704Z,119.13
2018-06-03T01:40:28.751Z,104.13
2018-06-03T01:43:04.160Z,114.77
2018-06-03T01:45:32.958Z,110.83
2018-06-03T01:48:02.020Z,103.77
2018-06-03T01:50:31.396Z,111.43
2018-06-03T01:53:00.583Z,115.60
2018-06-03T01:55:29.376Z,109.33
2018-06-03T01:57:58.266Z,98.43
2018-06-03T02:00:27.421Z,102.97
2018-06-03T02:08:49.499Z,115.83
2018-06-03T02:11:18.774Z,126.50
2018-06-03T02:13:47.730Z,119.53
2018-06-03T02:16:16.540Z,117.97
2018-06-03T02:18:45.348Z,136.47
2018-06-03T02:21:14.488Z,116.73
2018-06-03T02:23:43.685Z,137.30
2018-06-03T02:26:12.513Z,126.27
2018-06-03T02:28:41.360Z,119.00
2018-06-03T02:31:10.195Z,127.60
2018-06-03T02:33:39.332Z,128.30
2018-06-03T02:36:08.694Z,133.13
2018-06-03T02:38:37.816Z,129.43
2018-06-03T02:41:06.687Z,132.37
2018-06-03T02:43:35.825Z,119.73
2018-06-03T02:46:05.666Z,117.17
2018-06-03T02:48:34.520Z,131.47
2018-06-03T02:51:03.401Z,127.13
2018-06-03T02:53:33.475Z,126.70
2018-06-03T02:56:02.602Z,116.13
2018-06-03T02:58:32.132Z,138.63
2018-06-03T03:01:01.058Z,130.47
2018-06-03T03:03:30.255Z,123.57
2018-06-03T03:05:59.447Z,127.33
2018-06-03T03:08:28.565Z,117.47
2018-06-03T03:10:57.717Z,124.23
2018-06-03T03:13:26.603Z,137.70
2018-06-03T03:15:55.453Z,131.23
2018-06-03T03:18:24.299Z,139.93
2018-06-03T03:20:53.503Z,122.60
2018-06-03T03:23:22.378Z,124.73
2018-06-03T03:25:51.611Z,147.93
2018-06-03T03:28:20.829Z,142.30
2018-06-03T03:30:49.664Z,134.77
2018-06-03T03:33:18.796Z,146.10
2018-06-03T03:35:47.992Z,154.93
2018-06-03T03:38:16.846Z,144.93
2018-06-03T03:40:45.717Z,131.70
2018-06-03T03:43:16.881Z,131.27
2018-06-03T03:45:46.103Z,140.57
2018-06-03T03:48:15.012Z,126.17
2018-06-03T03:50:44.209Z,123.47
2018-06-03T03:53:14.080Z,150.37
2018-06-03T03:55:42.933Z,135.57
2018-06-03T03:58:12.449Z,149.07
2018-06-03T04:00:41.509Z,138.00
2018-06-03T04:03:10.984Z,143.00
2018-06-03T04:05:39.859Z,139.10
2018-06-03T04:08:09.091Z,129.80
2018-06-03T04:10:38.388Z,146.97
2018-06-03T04:13:07.926Z,139.97
2018-06-03T04:15:36.767Z,142.53
2018-06-03T04:18:05.949Z,155.60
2018-06-03T04:20:34.803Z,152.80
2018-06-03T04:23:03.653Z,138.87
2018-06-03T04:25:33.219Z,143.90
2018-06-03T04:28:02.061Z,136.80
2018-06-03T04:30:31.189Z,139.83
2018-06-03T04:33:00.096Z,138.60
2018-06-03T04:35:29.616Z,141.93
2018-06-03T04:37:59.043Z,138.93
2018-06-03T04:40:27.899Z,128.60
2018-06-03T04:42:57.007Z,140.37
2018-06-03T04:45:26.544Z,133.07
2018-06-03T04:47:55.402Z,130.97
2018-06-03T04:50:24.235Z,147.10
2018-06-03T04:52:53.440Z,148.43
2018-06-03T04:55:22.241Z,122.53
2018-06-03T04:57:51.521Z,135.87
2018-06-03T05:00:20.316Z,139.33
2018-06-03T05:02:49.188Z,119.30
2018-06-03T05:05:18.322Z,127.60
2018-06-03T05:07:47.538Z,129.87
2018-06-03T05:10:16.427Z,128.20
2018-06-03T05:12:45.214Z,122.03
2018-06-03T05:15:14.488Z,135.07
2018-06-03T05:17:43.296Z,136.43
2018-06-03T05:20:12.150Z,113.00
2018-06-03T05:22:41.363Z,129.97
2018-06-03T05:25:10.660Z,128.80
2018-06-03T05:27:39.453Z,124.03
2018-06-03T05:30:08.635Z,123.53
2018-06-03T05:32:37.503Z,130.63
2018-06-03T05:35:06.845Z,126.83
2018-06-03T05:37:35.886Z,120.10
2018-06-03T05:40:04.997Z,134.17
2018-06-03T05:42:33.872Z,145.60
2018-06-03T05:45:02.952Z,150.03
2018-06-03T05:47:32.206Z,116.60
2018-06-03T05:50:01.683Z,135.47
2018-06-03T05:52:31.131Z,133.00
2018-06-03T05:55:00.279Z,126.73
2018-06-03T05:57:29.323Z,139.77
2018-06-03T05:59:58.497Z,128.50
2018-06-03T06:02:39.327Z,135.70
2018-06-03T06:05:08.224Z,117.47
2018-06-03T06:07:37.742Z,121.13
2018-06-03T06:10:07.503Z,120.80
2018-06-03T06:12:36.857Z,124.07
2018-06-03T06:15:06.729Z,124.97
2018-06-03T06:17:36.065Z,116.73
2018-06-03T06:20:06.236Z,125.57
2018-06-03T06:22:35.127Z,119.90
2018-06-03T06:25:04.232Z,122.60
2018-06-03T06:27:33.680Z,134.47
2018-06-03T06:30:02.570Z,140.03
2018-06-03T06:32:31.921Z,133.70
2018-06-03T06:35:00.745Z,117.97
2018-06-03T06:37:29.851Z,114.17
2018-06-03T06:39:58.739Z,136.37
2018-06-03T06:42:27.586Z,119.20
2018-06-03T06:44:56.770Z,113.77
2018-06-03T06:47:25.592Z,143.27
2018-06-03T06:49:54.846Z,111.10
2018-06-03T06:52:24.124Z,130.50
2018-06-03T06:54:52.979Z,120.27
2018-06-03T06:57:22.455Z,124.40
2018-06-03T06:59:51.309Z,123.27
2018-06-03T07:02:20.275Z,127.37
2018-06-03T07:04:49.576Z,122.57
2018-06-03T07:07:18.977Z,113.07
2018-06-03T07:09:47.861Z,111.10
2018-06-03T07:12:16.776Z,126.13
2018-06-03T07:14:46.351Z,120.97
2018-06-03T07:17:15.277Z,117.10
2018-06-03T07:19:44.254Z,108.00
2018-06-03T07:22:32.906Z,125.47
2018-06-03T07:25:02.518Z,121.87
2018-06-03T07:27:31.649Z,119.77
2018-06-03T07:30:00.878Z,126.73
2018-06-03T07:32:30.065Z,104.80
2018-06-03T07:34:59.150Z,106.40
2018-06-03T07:37:28.978Z,88.93
2018-06-03T07:39:58.182Z,83.70
2018-06-03T07:42:27.146Z,95.90
2018-06-03T07:44:56.669Z,100.77
2018-06-03T07:47:25.618Z,91.63
2018-06-03T07:49:54.614Z,114.17
2018-06-03T07:52:23.869Z,107.30
2018-06-03T07:54:53.127Z,107.73
2018-06-03T07:57:22.527Z,86.93
2018-06-03T07:59:51.784Z,91.80
2018-06-03T08:02:21.082Z,106.00
2018-06-03T08:04:50.275Z,100.03
2018-06-03T08:07:19.875Z,92.27
2018-06-03T08:09:49.253Z,102.67
2018-06-03T08:12:18.081Z,99.30
2018-06-03T08:14:47.594Z,106.97
2018-06-03T08:17:16.866Z,105.93
2018-06-03T08:19:45.812Z,107.70
2018-06-03T08:22:14.759Z,105.00
2018-06-03T08:24:43.670Z,112.57
2018-06-03T08:27:13.405Z,90.73
2018-06-03T08:29:42.702Z,75.03
2018-06-03T08:32:11.999Z,68.33
2018-06-03T08:34:41.283Z,72.70
2018-06-03T08:37:10.790Z,76.30
2018-06-03T08:39:39.664Z,70.10
2018-06-03T08:42:08.884Z,66.87
2018-06-03T08:44:38.013Z,69.60
2018-06-03T08:47:07.279Z,61.10
2018-06-03T08:49:36.217Z,41.57
2018-06-03T08:52:05.173Z,53.23
2018-06-03T08:54:34.348Z,56.77
2018-06-03T08:57:03.220Z,56.47
2018-06-03T08:59:32.356Z,53.93
2018-06-03T09:02:01.240Z,56.77
2018-06-03T09:04:30.316Z,64.37
2018-06-03T09:06:59.625Z,67.20
2018-06-03T09:09:28.588Z,56.67
2018-06-03T09:11:57.685Z,57.63
2018-06-03T09:14:27.158Z,64.43
2018-06-03T09:16:55.989Z,59.90
2018-06-03T09:19:25.096Z,53.10
2018-06-03T09:21:54.668Z,54.00
2018-06-03T09:24:23.970Z,50.93
2018-06-03T09:26:53.091Z,48.63
2018-06-03T09:29:21.952Z,52.50
2018-06-03T09:31:50.781Z,47.73
2018-06-03T09:34:19.746Z,51.73
2018-06-03T09:36:49.111Z,58.57
2018-06-03T09:39:18.292Z,60.77
2018-06-03T09:41:47.567Z,57.60
2018-06-03T09:44:16.382Z,62.03
2018-06-03T09:46:45.806Z,60.60
2018-06-03T09:49:15.000Z,57.40
2018-06-03T09:51:44.128Z,55.53
2018-06-03T09:54:13.129Z,57.50
2018-06-03T09:56:42.305Z,52.67
2018-06-03T09:59:11.189Z,55.60
2018-06-03T10:01:40.317Z,55.10
2018-06-03T10:04:09.577Z,54.63
2018-06-03T10:06:38.461Z,56.17
2018-06-03T10:09:07.924Z,49.90
2018-06-03T10:11:36.819Z,67.13
2018-06-03T10:14:05.652Z,55.27
2018-06-03T10:16:34.484Z,53.80
2018-06-03T10:19:03.359Z,53.13
2018-06-03T10:21:32.341Z,52.80
2018-06-03T10:24:01.377Z,54.00
2018-06-03T10:26:30.180Z,45.70
2018-06-03T10:28:59.094Z,48.47
2018-06-03T10:31:28.737Z,54.73
2018-06-03T10:33:57.642Z,47.90
2018-06-03T10:36:26.979Z,45.80
2018-06-03T10:38:55.790Z,52.63
2018-06-03T10:41:24.585Z,50.53
2018-06-03T10:43:54.222Z,45.63
2018-06-03T10:46:23.610Z,44.90
2018-06-03T10:51:26.133Z,47.30
2018-06-03T10:53:54.948Z,43.83
2018-06-03T10:56:23.924Z,44.40
2018-06-03T10:58:52.726Z,47.63
2018-06-03T11:01:21.554Z,40.60
2018-06-03T11:03:50.727Z,40.57
2018-06-03T11:06:19.891Z,43.77
2018-06-03T11:08:49.276Z,54.33
2018-06-03T11:11:18.866Z,41.97
2018-06-03T11:13:47.982Z,44.40
2018-06-03T11:16:17.045Z,44.30
2018-06-03T11:18:46.388Z,44.43
2018-06-03T11:21:15.473Z,42.67
2018-06-03T11:23:45.735Z,43.07
2018-06-03T11:26:15.417Z,44.87
2018-06-03T11:28:44.437Z,41.57
2018-06-03T11:31:13.612Z,43.93
2018-06-03T11:33:42.489Z,40.53
2018-06-03T11:36:11.409Z,47.47
2018-06-03T11:38:40.299Z,42.03
2018-06-03T11:41:09.759Z,39.73
2018-06-03T11:43:38.869Z,37.63
2018-06-03T11:46:07.982Z,38.37
2018-06-03T11:48:36.769Z,29.80
2018-06-03T11:51:05.883Z,32.63
2018-06-03T11:53:35.392Z,25.63
2018-06-03T11:56:04.528Z,33.20
2018-06-03T11:58:44.619Z,29.57
2018-06-03T12:01:13.862Z,30.83
2018-06-03T12:03:42.717Z,28.03
2018-06-03T12:06:11.506Z,33.30
2018-06-03T12:08:40.821Z,29.70
2018-06-03T12:11:10.130Z,39.73
2018-06-03T12:13:39.284Z,29.50
2018-06-03T12:16:08.114Z,32.47
2018-06-03T12:18:37.822Z,36.33
2018-06-03T12:21:06.638Z,24.33
2018-06-03T12:23:36.022Z,28.23
2018-06-03T12:26:05.101Z,32.63
2018-06-03T12:28:34.293Z,26.93
2018-06-03T12:31:03.161Z,23.43
2018-06-03T12:33:31.950Z,26.00
2018-06-03T12:36:00.950Z,30.30
2018-06-03T12:38:29.823Z,29.80
2018-06-03T12:40:58.635Z,27.30
2018-06-03T12:43:27.566Z,22.50
2018-06-03T12:45:56.404Z,28.33
2018-06-03T12:48:25.184Z,27.03
2018-06-03T12:50:54.417Z,24.23
2018-06-03T12:53:23.692Z,28.17
2018-06-03T12:55:52.452Z,24.77
2018-06-03T12:58:21.599Z,27.03
2018-06-03T13:00:50.614Z,23.53
2018-06-03T13:03:19.782Z,22.57
2018-06-03T13:05:49.202Z,23.23
2018-06-03T13:08:18.095Z,25.10
2018-06-03T13:10:46.927Z,23.53
2018-06-03T13:13:16.026Z,27.73
2018-06-03T13:15:45.533Z,22.70
2018-06-03T13:18:14.671Z,21.30
2018-06-03T13:20:43.479Z,22.33
2018-06-03T13:23:12.400Z,23.60
2018-06-03T13:25:41.534Z,22.83
2018-06-03T13:28:10.732Z,24.20
2018-06-03T13:30:40.152Z,19.70
2018-06-03T13:33:09.047Z,20.23
2018-06-03T13:35:37.903Z,17.50
2018-06-03T13:38:06.937Z,23.47
2018-06-03T13:40:36.472Z,17.63
2018-06-03T13:43:05.724Z,23.53
2018-06-03T13:45:34.528Z,18.10
2018-06-03T13:48:03.470Z,18.53
2018-06-03T13:50:32.334Z,19.33
2018-06-03T13:53:01.192Z,18.40
2018-06-03T13:55:30.364Z,17.73
2018-06-03T13:57:59.158Z,16.93
2018-06-03T14:00:28.028Z,24.60
2018-06-03T14:02:57.512Z,21.60
2018-06-03T14:05:26.682Z,20.70
2018-06-03T14:07:56.033Z,23.43
2018-06-03T14:10:25.487Z,24.93
2018-06-03T14:12:54.599Z,20.67
2018-06-03T14:15:24.123Z,23.37
2018-06-03T14:17:53.268Z,22.60
2018-06-03T14:20:22.311Z,20.30
2018-06-03T14:22:51.859Z,21.33
2018-06-03T14:25:20.632Z,17.90
2018-06-03T14:27:49.839Z,20.60
2018-06-03T14:30:18.857Z,28.27
2018-06-03T14:32:48.191Z,24.03
2018-06-03T14:35:17.591Z,17.27
2018-06-03T14:37:46.571Z,16.40
2018-06-03T14:40:15.372Z,20.00
2018-06-03T14:42:44.745Z,24.90
2018-06-03T14:45:13.660Z,21.40
2018-06-03T14:47:42.715Z,19.73
2018-06-03T14:50:11.750Z,20.60
2018-06-03T14:52:40.943Z,20.57
2018-06-03T14:55:10.086Z,18.77
2018-06-03T14:57:39.863Z,21.50
2018-06-03T15:00:09.798Z,22.93
2018-06-03T15:02:38.679Z,23.20
2018-06-03T15:05:07.762Z,22.77
2018-06-03T15:07:36.923Z,20.10
2018-06-03T15:10:06.071Z,20.13
2018-06-03T15:12:34.904Z,27.63
2018-06-03T15:15:03.745Z,22.07
2018-06-03T15:17:32.666Z,35.93
2018-06-03T15:20:01.535Z,20.63
2018-06-03T15:22:30.837Z,20.37
2018-06-03T15:25:00.061Z,24.90
2018-06-03T15:27:28.910Z,23.60
2018-06-03T15:29:58.345Z,20.50
2018-06-03T15:32:27.440Z,18.73
2018-06-03T15:34:56.241Z,22.67
2018-06-03T15:37:25.083Z,24.80
2018-06-03T15:39:54.273Z,24.13
2018-06-03T15:42:23.361Z,23.70
2018-06-03T15:44:53.351Z,26.37
2018-06-03T15:47:23.110Z,20.10
2018-06-03T15:49:52.620Z,25.03
2018-06-03T15:52:22.891Z,24.67
2018-06-03T15:54:52.880Z,19.77
2018-06-03T15:57:22.846Z,19.03
2018-06-03T15:59:52.841Z,25.80
2018-06-03T16:02:22.759Z,21.23
2018-06-03T16:04:51.560Z,20.57
2018-06-03T16:07:20.696Z,24.17
2018-06-03T16:09:49.575Z,21.43
2018-06-03T16:12:18.944Z,20.90
2018-06-03T16:14:48.444Z,23.27
2018-06-03T16:17:18.132Z,24.90
2018-06-03T16:19:47.606Z,21.40
2018-06-03T16:22:16.510Z,18.00
2018-06-03T16:24:45.826Z,20.83
2018-06-03T16:27:14.660Z,23.70
2018-06-03T16:29:43.879Z,19.83
2018-06-03T16:32:12.712Z,19.67
2018-06-03T16:34:41.908Z,20.57
2018-06-03T16:37:11.052Z,24.63
2018-06-03T16:39:39.851Z,14.90
2018-06-03T16:42:09.044Z,19.40
2018-06-03T16:44:38.104Z,20.60
2018-06-03T16:47:07.363Z,18.37
2018-06-03T16:49:36.654Z,18.80
2018-06-03T16:52:05.604Z,14.67
2018-06-03T16:54:34.787Z,13.27
2018-06-03T16:57:03.564Z,15.70
2018-06-03T16:59:32.458Z,19.57
2018-06-03T17:02:01.676Z,16.33
2018-06-03T17:04:30.553Z,15.10
2018-06-03T17:06:59.768Z,14.67
2018-06-03T17:09:28.674Z,15.03
2018-06-03T17:11:58.744Z,12.80
2018-06-03T17:14:28.926Z,12.00
2018-06-03T17:16:58.066Z,25.53
2018-06-03T17:19:27.285Z,14.00
2018-06-03T17:21:56.140Z,16.20
2018-06-03T17:24:25.025Z,19.47
2018-06-03T17:26:54.534Z,15.03
2018-06-03T17:29:23.348Z,18.73
2018-06-03T17:31:52.244Z,18.13
2018-06-03T17:34:22.211Z,15.23
2018-06-03T17:36:51.033Z,15.37
2018-06-03T17:39:20.812Z,21.20
2018-06-03T17:41:49.720Z,21.87
2018-06-03T17:44:18.569Z,15.80
2018-06-03T17:46:47.681Z,15.67
2018-06-03T17:49:16.804Z,13.30
2018-06-03T17:51:45.998Z,27.73
2018-06-03T17:54:15.028Z,13.83
2018-06-03T17:56:43.870Z,15.00
2018-06-03T17:59:13.018Z,17.07
2018-06-03T18:01:42.214Z,14.10
2018-06-03T18:04:11.077Z,16.90
2018-06-03T18:06:40.337Z,21.77
2018-06-03T18:09:09.546Z,15.80
2018-06-03T18:11:38.395Z,12.97
2018-06-03T18:14:07.257Z,16.30
2018-06-03T18:16:36.894Z,14.30
2018-06-03T18:19:06.291Z,13.83
2018-06-03T18:21:37.769Z,14.80
2018-06-03T18:24:07.582Z,16.53
2018-06-03T18:26:36.924Z,19.83
2018-06-03T18:29:05.839Z,19.27
2018-06-03T18:31:34.997Z,26.00
2018-06-03T18:34:03.823Z,16.73
2018-06-03T18:36:32.805Z,15.90
2018-06-03T18:39:01.794Z,18.80
2018-06-03T18:41:30.869Z,19.07
2018-06-03T18:44:00.249Z,20.50
2018-06-03T18:46:29.554Z,21.50
2018-06-03T18:48:58.696Z,23.43
2018-06-03T18:51:27.777Z,23.53
2018-06-03T18:53:56.647Z,30.10
2018-06-03T18:56:25.709Z,37.23
2018-06-03T18:58:54.855Z,38.47
2018-06-03T19:01:23.954Z,42.17
2018-06-03T19:03:52.768Z,42.07
2018-06-03T19:06:21.665Z,45.13
2018-06-03T19:08:50.789Z,54.63
2018-06-03T19:11:20.008Z,58.83
2018-06-03T19:13:49.221Z,51.63
2018-06-03T19:16:18.424Z,56.63
2018-06-03T19:18:47.308Z,53.13
2018-06-03T19:21:16.419Z,54.57
2018-06-03T19:23:45.738Z,58.50
2018-06-03T19:26:15.214Z,52.50
2018-06-03T19:28:44.036Z,51.10
2018-06-03T19:31:13.127Z,64.40
2018-06-03T19:33:41.923Z,57.00
2018-06-03T19:36:10.774Z,62.37
2018-06-03T19:38:39.547Z,58.17
2018-06-03T19:41:08.806Z,68.13
2018-06-03T19:43:37.906Z,66.00
2018-06-03T19:46:06.791Z,61.57
2018-06-03T19:48:35.751Z,59.40
2018-06-03T19:51:05.404Z,57.33
2018-06-03T19:53:34.230Z,59.60
2018-06-03T19:56:03.085Z,55.60
2018-06-03T19:58:32.269Z,58.93
2018-06-03T20:01:01.527Z,58.57
2018-06-03T20:03:30.629Z,47.63
2018-06-03T20:05:59.995Z,51.03
2018-06-03T20:08:28.890Z,45.83
2018-06-03T20:10:57.801Z,44.67
2018-06-03T20:13:26.505Z,47.50
2018-06-03T20:15:55.433Z,44.87
2018-06-03T20:18:24.280Z,42.83
2018-06-03T20:20:53.567Z,43.53
2018-06-03T20:23:22.855Z,39.40
2018-06-03T20:25:51.748Z,42.83
2018-06-03T20:28:21.287Z,49.87
2018-06-03T20:30:50.726Z,40.60
2018-06-03T20:33:19.910Z,43.17
2018-06-03T20:35:49.351Z,42.43
2018-06-03T20:38:18.178Z,45.13
2018-06-03T20:40:47.284Z,43.53
2018-06-03T20:43:16.213Z,41.40
2018-06-03T20:45:45.141Z,41.70
2018-06-03T20:48:13.958Z,50.50
2018-06-03T20:50:43.491Z,46.53
2018-06-03T20:53:12.355Z,53.27
2018-06-03T20:55:41.793Z,47.57
2018-06-03T20:58:10.722Z,49.90
2018-06-03T21:00:39.938Z,49.47
2018-06-03T21:03:09.146Z,53.27
2018-06-03T21:05:38.411Z,56.27
2018-06-03T21:08:07.499Z,49.13
2018-06-03T21:10:36.420Z,46.70
2018-06-03T21:13:05.399Z,48.97
2018-06-03T21:15:34.612Z,51.33
2018-06-03T21:18:03.768Z,49.13
2018-06-03T21:20:32.648Z,38.90
2018-06-03T21:23:01.510Z,43.10
2018-06-03T21:25:31.056Z,47.60
2018-06-03T21:28:00.168Z,48.40
2018-06-03T21:30:28.999Z,49.90
2018-06-03T21:32:57.886Z,51.67
2018-06-03T21:35:27.372Z,43.83
2018-06-03T21:37:57.578Z,46.77
2018-06-03T21:40:26.688Z,48.20
2018-06-03T21:42:55.801Z,47.30
2018-06-03T21:45:24.877Z,46.80
2018-06-03T21:47:53.953Z,50.30
2018-06-03T21:50:23.066Z,49.03
2018-06-03T21:52:52.264Z,53.00
2018-06-03T21:55:21.702Z,51.50
2018-06-03T21:57:51.016Z,56.70
2018-06-03T22:00:19.869Z,55.47
2018-06-03T22:02:49.056Z,51.43
2018-06-03T22:05:18.312Z,71.43
2018-06-03T22:07:47.146Z,51.70
2018-06-03T22:10:16.280Z,53.47
2018-06-03T22:12:45.147Z,50.23
2018-06-03T22:15:14.576Z,51.60
2018-06-03T22:17:43.802Z,49.70
2018-06-03T22:20:12.935Z,48.47
2018-06-03T22:22:42.389Z,58.60
2018-06-03T22:25:11.210Z,53.43
2018-06-03T22:27:40.023Z,66.40
2018-06-03T22:30:09.160Z,52.27
2018-06-03T22:32:38.351Z,56.07
2018-06-03T22:35:07.183Z,55.77
2018-06-03T22:37:36.018Z,51.10
2018-06-03T22:40:04.876Z,59.50
2018-06-03T22:42:33.890Z,48.27
2018-06-03T22:45:03.384Z,65.70
2018-06-03T22:47:32.312Z,60.87
2018-06-03T22:50:02.233Z,64.83
2018-06-03T22:52:31.083Z,54.27
2018-06-03T22:55:00.498Z,58.67
2018-06-03T22:57:42.821Z,59.00
2018-06-03T23:00:14.481Z,56.60
2018-06-03T23:02:47.978Z,57.60
2018-06-03T23:05:16.879Z,63.00
2018-06-03T23:07:45.698Z,58.40
2018-06-03T23:10:14.825Z,53.10
2018-06-03T23:12:44.086Z,59.63
2018-06-03T23:15:13.476Z,57.10
2018-06-03T23:17:42.721Z,64.03
2018-06-03T23:20:11.683Z,61.60
2018-06-03T23:22:41.259Z,60.70
2018-06-03T23:25:10.120Z,63.67
2018-06-03T23:27:38.964Z,49.77
2018-06-03T23:30:08.086Z,55.87
2018-06-03T23:32:37.252Z,60.03
2018-06-03T23:35:06.438Z,50.53
2018-06-03T23:37:35.592Z,50.80
2018-06-03T23:40:04.506Z,57.03
2018-06-03T23:54:04.048Z,53.97
2018-06-03T23:56:33.435Z,53.77
2018-06-03T23:59:02.335Z,56.40
